createdAt,value
2022-10-22T00:00:09.107Z,98614.91
2022-10-22T00:02:36.268Z,98608.38
2022-10-22T00:05:04.946Z,98609.59
2022-10-22T00:07:32.036Z,98613.25
2022-10-22T00:09:59.100Z,98609.88
2022-10-22T00:12:26.420Z,98615.47
2022-10-22T00:14:53.562Z,98605.72
2022-10-22T00:17:20.755Z,98616.25
2022-10-22T00:19:47.833Z,98606.00
2022-10-22T00:22:14.939Z,98610.16
2022-10-22T00:24:42.336Z,98602.13
2022-10-22T00:27:13.211Z,98601.91
2022-10-22T00:29:40.516Z,98598.47
2022-10-22T00:32:07.971Z,98586.81
2022-10-22T00:34:35.053Z,98577.31
2022-10-22T00:37:02.136Z,98575.38
2022-10-22T00:39:29.684Z,98568.78
2022-10-22T00:41:58.709Z,98568.53
2022-10-22T00:45:02.987Z,98578.25
2022-10-22T00:47:37.589Z,98579.72
2022-10-22T00:50:09.898Z,98578.50
2022-10-22T00:52:37.476Z,98586.56
2022-10-22T00:55:05.849Z,98586.34
2022-10-22T00:57:35.150Z,98590.69
2022-10-22T01:00:02.932Z,98582.66
2022-10-22T01:02:30.060Z,98581.00
2022-10-22T01:04:57.168Z,98573.44
2022-10-22T01:07:26.251Z,98576.63
2022-10-22T01:10:18.083Z,98575.66
2022-10-22T01:13:03.310Z,98569.31
2022-10-22T01:15:37.318Z,98567.38
2022-10-22T01:18:12.627Z,98569.03
2022-10-22T01:20:55.949Z,98559.06
2022-10-22T01:23:36.914Z,98556.41
2022-10-22T01:29:07.550Z,98547.41
2022-10-22T01:31:40.211Z,98550.28
2022-10-22T01:34:10.187Z,98556.13
2022-10-22T01:36:38.576Z,98552.72
2022-10-22T01:39:07.903Z,98555.19
2022-10-22T01:41:38.547Z,98542.22
2022-10-22T01:44:05.597Z,98539.56
2022-10-22T01:46:33.483Z,98538.34
2022-10-22T01:49:34.892Z,98530.78
2022-10-22T01:52:37.291Z,98536.88
2022-10-22T01:55:26.698Z,98534.69
2022-10-22T01:58:15.503Z,98532.25
2022-10-22T02:00:50.940Z,98531.75
2022-10-22T02:03:25.818Z,98518.34
2022-10-22T02:05:57.489Z,98522.03
2022-10-22T02:08:28.994Z,98516.66
2022-10-22T02:10:57.883Z,98520.06
2022-10-22T02:13:35.754Z,98519.91
2022-10-22T02:16:04.906Z,98518.44
2022-10-22T02:18:37.502Z,98521.13
2022-10-22T02:23:36.306Z,98523.09
2022-10-22T02:26:22.494Z,98516.25
2022-10-22T02:28:49.568Z,98525.97
2022-10-22T02:31:23.787Z,98533.53
2022-10-22T02:33:57.032Z,98528.41
2022-10-22T02:36:24.602Z,98525.75
2022-10-22T02:38:52.657Z,98527.94
2022-10-22T02:41:20.620Z,98529.34
2022-10-22T02:43:54.690Z,98536.69
2022-10-22T02:46:22.497Z,98543.75
2022-10-22T02:48:49.575Z,98547.19
2022-10-22T02:51:16.768Z,98548.13
2022-10-22T02:53:43.867Z,98548.59
2022-10-22T02:56:11.994Z,98548.38
2022-10-22T02:58:39.102Z,98540.56
2022-10-22T03:01:06.382Z,98537.16
2022-10-22T03:03:33.757Z,98538.59
2022-10-22T03:06:00.939Z,98533.47
2022-10-22T03:08:27.999Z,98534.94
2022-10-22T03:10:55.078Z,98529.34
2022-10-22T03:13:22.186Z,98526.22
2022-10-22T03:15:50.587Z,98524.78
2022-10-22T03:18:17.916Z,98509.19
2022-10-22T03:20:45.114Z,98509.19
2022-10-22T03:23:14.945Z,98512.81
2022-10-22T03:25:43.783Z,98500.19
2022-10-22T03:28:14.273Z,98514.75
2022-10-22T03:30:41.491Z,98503.59
2022-10-22T03:33:08.554Z,98503.13
2022-10-22T03:35:43.515Z,98502.41
2022-10-22T03:38:11.045Z,98515.84
2022-10-22T03:40:38.644Z,98511.47
2022-10-22T03:43:05.879Z,98516.09
2022-10-22T03:45:33.117Z,98515.09
2022-10-22T03:48:00.368Z,98523.91
2022-10-22T03:50:27.411Z,98516.34
2022-10-22T03:52:54.707Z,98520.22
2022-10-22T03:55:22.145Z,98519.94
2022-10-22T03:57:49.250Z,98521.66
2022-10-22T04:00:16.458Z,98521.91
2022-10-22T04:02:43.548Z,98517.03
2022-10-22T04:05:10.742Z,98513.84
2022-10-22T04:07:38.089Z,98523.34
2022-10-22T04:10:05.793Z,98525.75
2022-10-22T04:12:32.893Z,98522.09
2022-10-22T04:14:59.984Z,98513.09
2022-10-22T04:17:27.021Z,98513.56
2022-10-22T04:19:54.050Z,98515.78
2022-10-22T04:22:21.186Z,98515.81
2022-10-22T04:24:48.402Z,98510.22
2022-10-22T04:27:15.459Z,98514.84
2022-10-22T04:29:43.145Z,98504.13
2022-10-22T04:32:10.239Z,98496.84
2022-10-22T04:34:37.271Z,98492.25
2022-10-22T04:37:05.280Z,98497.34
2022-10-22T04:39:32.455Z,98492.97
2022-10-22T04:41:59.539Z,98490.56
2022-10-22T04:44:26.655Z,98489.31
2022-10-22T04:46:53.775Z,98491.78
2022-10-22T04:49:20.811Z,98483.50
2022-10-22T04:51:47.826Z,98486.91
2022-10-22T04:54:15.151Z,98482.81
2022-10-22T04:56:42.461Z,98488.41
2022-10-22T04:59:13.015Z,98478.41
2022-10-22T05:01:43.553Z,98479.91
2022-10-22T05:04:17.071Z,98484.25
2022-10-22T05:06:44.734Z,98490.81
2022-10-22T05:09:18.512Z,98483.28
2022-10-22T05:11:46.644Z,98488.38
2022-10-22T05:14:15.484Z,98501.28
2022-10-22T05:16:42.658Z,98498.84
2022-10-22T05:19:15.281Z,98500.56
2022-10-22T05:21:42.383Z,98506.59
2022-10-22T05:24:09.683Z,98511.69
2022-10-22T05:26:36.829Z,98516.34
2022-10-22T05:29:03.944Z,98524.63
2022-10-22T05:31:31.079Z,98528.97
2022-10-22T05:33:58.321Z,98526.31
2022-10-22T05:36:25.496Z,98532.88
2022-10-22T05:38:52.762Z,98537.75
2022-10-22T05:41:25.411Z,98545.00
2022-10-22T05:43:56.193Z,98537.47
2022-10-22T05:46:24.761Z,98532.88
2022-10-22T05:49:03.509Z,98541.88
2022-10-22T05:51:33.903Z,98543.09
2022-10-22T05:54:06.383Z,98537.72
2022-10-22T05:56:34.048Z,98538.72
2022-10-22T06:01:37.859Z,98535.06
2022-10-22T06:04:08.022Z,98532.88
2022-10-22T06:06:53.901Z,98540.41
2022-10-22T06:09:34.862Z,98538.22
2022-10-22T06:12:02.617Z,98532.16
2022-10-22T06:14:32.531Z,98543.78
2022-10-22T06:17:00.253Z,98536.50
2022-10-22T06:19:27.559Z,98537.47
2022-10-22T06:21:54.641Z,98539.66
2022-10-22T06:24:21.729Z,98538.22
2022-10-22T06:26:53.009Z,98541.63
2022-10-22T06:29:20.178Z,98542.81
2022-10-22T06:31:47.252Z,98539.66
2022-10-22T06:34:15.913Z,98531.19
2022-10-22T06:36:44.813Z,98537.47
2022-10-22T06:39:14.027Z,98538.22
2022-10-22T06:41:41.675Z,98542.13
2022-10-22T06:44:14.314Z,98538.97
2022-10-22T06:46:43.407Z,98539.44
2022-10-22T06:49:14.610Z,98537.25
2022-10-22T06:51:42.047Z,98539.69
2022-10-22T06:54:09.499Z,98546.75
2022-10-22T06:56:36.731Z,98544.56
2022-10-22T06:59:04.282Z,98553.06
2022-10-22T07:01:34.208Z,98556.22
2022-10-22T07:04:02.177Z,98557.44
2022-10-22T07:06:30.124Z,98563.00
2022-10-22T07:08:59.106Z,98571.78
2022-10-22T07:11:29.103Z,98569.31
2022-10-22T07:13:58.744Z,98573.00
2022-10-22T07:16:29.650Z,98581.50
2022-10-22T07:18:59.815Z,98584.91
2022-10-22T07:21:26.960Z,98585.16
2022-10-22T07:23:54.012Z,98590.75
2022-10-22T07:26:21.377Z,98588.81
2022-10-22T07:28:48.821Z,98592.22
2022-10-22T07:31:17.152Z,98591.72
2022-10-22T07:33:45.204Z,98596.56
2022-10-22T07:36:18.113Z,98589.00
2022-10-22T07:38:49.993Z,98595.06
2022-10-22T07:41:17.695Z,98598.22
2022-10-22T07:43:44.817Z,98602.38
2022-10-22T07:46:12.378Z,98607.03
2022-10-22T07:48:39.694Z,98603.13
2022-10-22T07:51:07.139Z,98616.06
2022-10-22T07:53:34.433Z,98609.69
2022-10-22T07:56:01.673Z,98618.22
2022-10-22T07:58:28.954Z,98619.91
2022-10-22T08:00:57.672Z,98624.78
2022-10-22T08:03:25.004Z,98630.66
2022-10-22T08:05:52.551Z,98639.66
2022-10-22T08:08:20.156Z,98635.50
2022-10-22T08:10:49.302Z,98640.38
2022-10-22T08:13:16.643Z,98630.88
2022-10-22T08:18:12.172Z,98643.03
2022-10-22T08:20:39.683Z,98652.28
2022-10-22T08:23:06.779Z,98655.19
2022-10-22T08:25:34.236Z,98658.38
2022-10-22T08:28:01.516Z,98654.47
2022-10-22T08:30:30.078Z,98662.03
2022-10-22T08:32:57.333Z,98668.59
2022-10-22T08:35:24.451Z,98670.28
2022-10-22T08:37:51.505Z,98675.41
2022-10-22T08:40:32.468Z,98678.56
2022-10-22T08:43:21.203Z,98687.78
2022-10-22T08:45:56.392Z,98689.97
2022-10-22T08:48:35.623Z,98691.19
2022-10-22T08:51:02.773Z,98706.50
2022-10-22T08:53:42.955Z,98712.63
2022-10-22T08:56:10.218Z,98714.53
2022-10-22T08:58:54.153Z,98721.84
2022-10-22T09:01:46.083Z,98726.00
2022-10-22T09:04:34.014Z,98730.84
2022-10-22T09:07:01.232Z,98738.63
2022-10-22T09:09:35.402Z,98747.88
2022-10-22T09:12:07.452Z,98747.16
2022-10-22T09:14:34.693Z,98756.63
2022-10-22T09:17:26.597Z,98751.75
2022-10-22T09:19:54.617Z,98743.94
2022-10-22T09:22:42.765Z,98756.81
2022-10-22T09:25:28.440Z,98757.28
2022-10-22T09:27:58.939Z,98755.81
2022-10-22T09:30:29.767Z,98759.47
2022-10-22T09:33:03.205Z,98769.91
2022-10-22T09:35:35.267Z,98769.63
2022-10-22T09:38:08.259Z,98767.19
2022-10-22T09:40:52.572Z,98775.50
2022-10-22T09:43:19.882Z,98777.69
2022-10-22T09:45:48.421Z,98780.84
2022-10-22T09:48:15.419Z,98781.59
2022-10-22T09:50:55.639Z,98784.06
2022-10-22T09:53:26.992Z,98784.56
2022-10-22T09:56:09.487Z,98787.03
2022-10-22T09:58:49.691Z,98789.97
2022-10-22T10:01:29.450Z,98792.13
2022-10-22T10:04:09.859Z,98797.72
2022-10-22T10:06:40.740Z,98795.75
2022-10-22T10:09:17.196Z,98787.22
2022-10-22T10:11:54.413Z,98789.13
2022-10-22T10:14:48.901Z,98788.13
2022-10-22T10:17:34.799Z,98795.72
2022-10-22T10:20:26.286Z,98798.91
2022-10-22T10:23:08.623Z,98791.53
2022-10-22T10:25:43.323Z,98785.44
2022-10-22T10:28:36.137Z,98786.84
2022-10-22T10:31:28.825Z,98780.00
2022-10-22T10:34:21.047Z,98776.06
2022-10-22T10:37:42.308Z,98778.97
2022-10-22T10:40:42.047Z,98779.19
2022-10-22T10:43:26.467Z,98776.78
2022-10-22T10:45:56.598Z,98768.44
2022-10-22T10:48:48.356Z,98770.78
2022-10-22T10:51:49.464Z,98779.97
2022-10-22T10:54:28.686Z,98776.00
2022-10-22T10:57:03.409Z,98778.44
2022-10-22T11:00:00.876Z,98780.50
2022-10-22T11:02:58.776Z,98781.00
2022-10-22T11:05:31.208Z,98787.91
2022-10-22T11:08:21.288Z,98777.47
2022-10-22T11:11:14.746Z,98782.59
2022-10-22T11:13:45.578Z,98775.31
2022-10-22T11:16:25.178Z,98776.31
2022-10-22T11:19:52.466Z,98779.75
2022-10-22T11:22:30.999Z,98776.84
2022-10-22T11:24:58.202Z,98773.66
2022-10-22T11:27:37.976Z,98765.31
2022-10-22T11:30:12.617Z,98770.91
2022-10-22T11:32:43.160Z,98771.88
2022-10-22T11:35:19.365Z,98771.34
2022-10-22T11:37:50.410Z,98769.31
2022-10-22T11:40:31.316Z,98765.22
2022-10-22T11:43:09.708Z,98761.06
2022-10-22T11:45:40.050Z,98762.53
2022-10-22T11:48:10.232Z,98760.06
2022-10-22T11:51:01.309Z,98753.94
2022-10-22T11:53:41.628Z,98755.06
2022-10-22T11:56:10.345Z,98744.72
2022-10-22T11:58:50.852Z,98738.31
2022-10-22T12:01:42.321Z,98737.19
2022-10-22T12:04:18.537Z,98730.25
2022-10-22T12:06:59.186Z,98735.81
2022-10-22T12:09:30.558Z,98734.38
2022-10-22T12:12:04.871Z,98728.25
2022-10-22T12:14:38.273Z,98725.56
2022-10-22T12:17:14.364Z,98723.31
2022-10-22T12:19:42.796Z,98713.38
2022-10-22T12:22:16.322Z,98706.25
2022-10-22T12:24:47.093Z,98706.75
2022-10-22T12:27:41.761Z,98700.19
2022-10-22T12:30:20.229Z,98700.19
2022-10-22T12:32:47.507Z,98697.44
2022-10-22T12:35:20.526Z,98693.53
2022-10-22T12:37:57.457Z,98687.28
2022-10-22T12:40:30.012Z,98676.22
2022-10-22T12:43:05.975Z,98673.44
2022-10-22T12:45:34.709Z,98681.66
2022-10-22T12:48:05.894Z,98678.31
2022-10-22T12:50:39.448Z,98677.03
2022-10-22T12:53:40.315Z,98669.75
2022-10-22T12:56:12.530Z,98662.41
2022-10-22T12:58:48.439Z,98657.47
2022-10-22T13:01:17.837Z,98661.63
2022-10-22T13:03:50.254Z,98656.66
2022-10-22T13:06:20.427Z,98648.81
2022-10-22T13:09:02.439Z,98651.88
2022-10-22T13:11:40.480Z,98651.88
2022-10-22T13:14:21.940Z,98647.00
2022-10-22T13:17:10.793Z,98645.63
2022-10-22T13:19:44.976Z,98639.66
2022-10-22T13:22:33.071Z,98635.97
2022-10-22T13:25:26.684Z,98641.09
2022-10-22T13:28:01.406Z,98640.22
2022-10-22T13:30:33.267Z,98636.78
2022-10-22T13:33:02.033Z,98631.88
2022-10-22T13:35:33.305Z,98633.47
2022-10-22T13:38:02.074Z,98629.34
2022-10-22T13:40:29.349Z,98633.31
2022-10-22T13:42:56.467Z,98623.63
2022-10-22T13:45:23.911Z,98628.13
2022-10-22T13:47:55.183Z,98623.88
2022-10-22T13:50:22.628Z,98625.69
2022-10-22T13:52:59.010Z,98610.25
2022-10-22T13:55:29.530Z,98613.16
2022-10-22T13:58:24.287Z,98613.66
2022-10-22T14:00:57.325Z,98604.34
2022-10-22T14:03:28.802Z,98601.78
2022-10-22T14:05:55.951Z,98593.19
2022-10-22T14:08:24.052Z,98592.50
2022-10-22T14:10:51.117Z,98591.84
2022-10-22T14:13:19.677Z,98585.22
2022-10-22T14:15:50.682Z,98576.50
2022-10-22T14:18:25.837Z,98577.56
2022-10-22T14:20:56.257Z,98571.00
2022-10-22T14:23:26.556Z,98566.66
2022-10-22T14:25:53.661Z,98559.94
2022-10-22T14:28:20.887Z,98558.91
2022-10-22T14:30:48.337Z,98559.31
2022-10-22T14:33:22.569Z,98559.94
2022-10-22T14:35:51.580Z,98553.94
2022-10-22T14:38:18.731Z,98551.47
2022-10-22T14:40:46.187Z,98549.00
2022-10-22T14:43:18.718Z,98557.06
2022-10-22T14:45:45.901Z,98555.88
2022-10-22T14:48:13.086Z,98555.47
2022-10-22T14:50:40.258Z,98558.69
2022-10-22T14:53:07.767Z,98556.41
2022-10-22T14:55:34.872Z,98555.47
2022-10-22T14:58:01.978Z,98559.88
2022-10-22T15:00:29.108Z,98555.28
2022-10-22T15:02:56.187Z,98551.69
2022-10-22T15:05:23.522Z,98552.63
2022-10-22T15:07:50.661Z,98560.84
2022-10-22T15:10:17.839Z,98559.41
2022-10-22T15:12:45.016Z,98553.34
2022-10-22T15:15:12.268Z,98556.78
2022-10-22T15:17:39.717Z,98561.06
2022-10-22T15:20:07.608Z,98554.34
2022-10-22T15:22:35.637Z,98554.25
2022-10-22T15:25:08.419Z,98567.84
2022-10-22T15:27:35.903Z,98569.78
2022-10-22T15:32:35.098Z,98564.09
2022-10-22T15:35:02.547Z,98561.41
2022-10-22T15:37:29.736Z,98564.81
2022-10-22T15:39:56.853Z,98554.78
2022-10-22T15:42:24.379Z,98566.97
2022-10-22T15:44:58.268Z,98564.69
2022-10-22T15:47:28.891Z,98551.25
2022-10-22T15:49:56.080Z,98557.25
2022-10-22T15:52:23.561Z,98556.44
2022-10-22T15:54:50.724Z,98557.03
2022-10-22T15:57:17.846Z,98554.34
2022-10-22T15:59:45.080Z,98563.47
2022-10-22T16:02:12.386Z,98559.91
2022-10-22T16:04:39.885Z,98554.72
2022-10-22T16:07:07.233Z,98549.66
2022-10-22T16:09:34.381Z,98552.28
2022-10-22T16:12:01.549Z,98545.00
2022-10-22T16:14:29.341Z,98543.75
2022-10-22T16:16:57.040Z,98543.16
2022-10-22T16:19:24.980Z,98540.38
2022-10-22T16:21:54.984Z,98535.19
2022-10-22T16:24:23.379Z,98539.53
2022-10-22T16:26:50.827Z,98535.66
2022-10-22T16:29:18.044Z,98546.97
2022-10-22T16:31:45.786Z,98545.94
2022-10-22T16:34:13.814Z,98549.78
2022-10-22T16:36:41.004Z,98550.00
2022-10-22T16:39:08.313Z,98544.28
2022-10-22T16:41:35.657Z,98552.66
2022-10-22T16:44:06.509Z,98553.88
2022-10-22T16:46:37.022Z,98555.31
2022-10-22T16:49:04.445Z,98558.16
2022-10-22T16:51:31.597Z,98553.53
2022-10-22T16:53:59.036Z,98561.22
2022-10-22T16:56:26.586Z,98562.78
2022-10-22T16:58:56.371Z,98557.72
2022-10-22T17:01:30.040Z,98562.97
2022-10-22T17:04:00.295Z,98567.34
2022-10-22T17:06:27.430Z,98575.63
2022-10-22T17:08:54.612Z,98562.69
2022-10-22T17:11:24.059Z,98566.50
2022-10-22T17:13:53.777Z,98557.06
2022-10-22T17:16:23.247Z,98558.00
2022-10-22T17:18:50.965Z,98564.88
2022-10-22T17:21:18.995Z,98564.78
2022-10-22T17:23:47.210Z,98561.56
2022-10-22T17:26:17.637Z,98557.44
2022-10-22T17:28:44.917Z,98553.06
2022-10-22T17:31:26.578Z,98548.88
2022-10-22T17:33:55.716Z,98558.97
2022-10-22T17:36:24.770Z,98560.81
2022-10-22T17:38:54.818Z,98556.59
2022-10-22T17:41:24.675Z,98552.63
2022-10-22T17:43:52.057Z,98558.72
2022-10-22T17:46:22.185Z,98563.81
2022-10-22T17:48:54.077Z,98558.22
2022-10-22T17:51:22.105Z,98559.00
2022-10-22T17:53:52.847Z,98570.53
2022-10-22T17:56:25.309Z,98568.84
2022-10-22T17:58:53.254Z,98567.41
2022-10-22T18:01:25.384Z,98570.72
2022-10-22T18:03:54.224Z,98576.09
2022-10-22T18:06:24.492Z,98573.59
2022-10-22T18:11:27.265Z,98575.91
2022-10-22T18:13:56.961Z,98576.19
2022-10-22T18:16:24.532Z,98575.88
2022-10-22T18:18:54.405Z,98570.53
2022-10-22T18:21:23.446Z,98573.03
2022-10-22T18:23:50.700Z,98576.03
2022-10-22T18:26:21.399Z,98575.81
2022-10-22T18:28:51.274Z,98574.81
2022-10-22T18:31:21.439Z,98575.75
2022-10-22T18:33:48.940Z,98586.19
2022-10-22T18:36:19.611Z,98582.09
2022-10-22T18:38:51.207Z,98588.69
2022-10-22T18:41:20.031Z,98585.56
2022-10-22T18:44:02.117Z,98586.75
2022-10-22T18:46:31.139Z,98587.78
2022-10-22T18:48:59.375Z,98585.09
2022-10-22T18:51:30.506Z,98581.38
2022-10-22T18:54:05.670Z,98587.50
2022-10-22T18:56:45.209Z,98588.72
2022-10-22T18:59:23.609Z,98592.88
2022-10-22T19:01:53.129Z,98590.72
2022-10-22T19:04:20.236Z,98590.97
2022-10-22T19:06:47.709Z,98586.34
2022-10-22T19:09:15.860Z,98584.88
2022-10-22T19:11:44.778Z,98590.97
2022-10-22T19:14:14.069Z,98591.47
2022-10-22T19:16:41.173Z,98593.41
2022-10-22T19:19:08.810Z,98591.25
2022-10-22T19:21:36.932Z,98589.06
2022-10-22T19:24:04.304Z,98593.94
2022-10-22T19:26:31.773Z,98597.84
2022-10-22T19:29:00.323Z,98614.22
2022-10-22T19:31:32.865Z,98612.84
2022-10-22T19:34:01.856Z,98611.91
2022-10-22T19:36:30.434Z,98617.72
2022-10-22T19:38:58.010Z,98624.78
2022-10-22T19:41:27.055Z,98628.94
2022-10-22T19:43:55.578Z,98631.84
2022-10-22T19:46:23.650Z,98640.13
2022-10-22T19:48:52.571Z,98631.53
2022-10-22T19:51:22.289Z,98641.06
2022-10-22T19:53:50.253Z,98639.09
2022-10-22T19:56:21.051Z,98640.56
2022-10-22T19:58:48.109Z,98640.13
2022-10-22T20:01:17.096Z,98640.13
2022-10-22T20:03:44.830Z,98638.66
2022-10-22T20:06:14.145Z,98632.81
2022-10-22T20:08:41.482Z,98643.84
2022-10-22T20:11:12.726Z,98629.47
2022-10-22T20:16:12.124Z,98636.28
2022-10-22T20:18:39.382Z,98630.47
2022-10-22T20:21:08.300Z,98633.66
2022-10-22T20:23:35.956Z,98628.78
2022-10-22T20:26:04.824Z,98627.34
2022-10-22T20:28:32.226Z,98626.38
2022-10-22T20:30:59.344Z,98616.34
2022-10-22T20:33:26.419Z,98624.66
2022-10-22T20:36:05.813Z,98626.09
2022-10-22T20:38:33.262Z,98622.69
2022-10-22T20:41:06.485Z,98626.09
2022-10-22T20:43:34.623Z,98636.38
2022-10-22T20:46:02.335Z,98638.59
2022-10-22T20:48:31.644Z,98643.97
2022-10-22T20:50:59.851Z,98645.19
2022-10-22T20:53:27.966Z,98643.03
2022-10-22T20:55:58.231Z,98661.56
2022-10-22T20:58:27.089Z,98666.72
2022-10-22T21:00:55.551Z,98672.78
2022-10-22T21:03:23.176Z,98672.06
2022-10-22T21:05:50.593Z,98678.63
2022-10-22T21:08:17.963Z,98687.66
2022-10-22T21:10:49.484Z,98684.75
2022-10-22T21:13:17.542Z,98695.72
2022-10-22T21:15:44.628Z,98697.19
2022-10-22T21:18:11.879Z,98690.84
2022-10-22T21:20:42.242Z,98693.31
2022-10-22T21:23:09.363Z,98687.72
2022-10-22T21:25:40.665Z,98686.47
2022-10-22T21:28:10.396Z,98675.28
2022-10-22T21:30:37.446Z,98681.16
2022-10-22T21:33:04.470Z,98673.13
2022-10-22T21:35:32.825Z,98659.78
2022-10-22T21:37:59.828Z,98664.94
2022-10-22T21:40:27.888Z,98665.19
2022-10-22T21:42:54.952Z,98667.59
2022-10-22T21:45:22.530Z,98666.13
2022-10-22T21:47:50.097Z,98670.75
2022-10-22T21:50:17.259Z,98670.00
2022-10-22T21:52:44.335Z,98673.94
2022-10-22T21:55:11.463Z,98677.09
2022-10-22T21:57:38.622Z,98683.69
2022-10-22T22:00:07.558Z,98681.00
2022-10-22T22:02:34.835Z,98678.09
2022-10-22T22:05:01.859Z,98675.19
2022-10-22T22:07:28.967Z,98680.31
2022-10-22T22:09:56.245Z,98676.69
2022-10-22T22:12:23.309Z,98675.47
2022-10-22T22:14:50.374Z,98670.84
2022-10-22T22:17:18.905Z,98678.16
2022-10-22T22:19:46.022Z,98680.09
2022-10-22T22:22:13.151Z,98670.88
2022-10-22T22:24:40.190Z,98663.38
2022-10-22T22:27:07.720Z,98667.03
2022-10-22T22:29:35.477Z,98675.09
2022-10-22T22:32:02.694Z,98673.81
2022-10-22T22:34:29.837Z,98677.25
2022-10-22T22:36:56.895Z,98677.75
2022-10-22T22:39:24.657Z,98690.41
2022-10-22T22:41:52.115Z,98684.31
2022-10-22T22:44:19.158Z,98682.81
2022-10-22T22:46:46.337Z,98693.56
2022-10-22T22:49:14.299Z,98689.41
2022-10-22T22:51:41.820Z,98689.63
2022-10-22T22:54:09.744Z,98688.66
2022-10-22T22:56:37.497Z,98693.78
2022-10-22T22:59:05.842Z,98684.25
2022-10-22T23:01:38.312Z,98686.22
2022-10-22T23:04:13.718Z,98692.31
2022-10-22T23:06:40.915Z,98691.84
2022-10-22T23:09:11.426Z,98685.28
2022-10-22T23:11:40.459Z,98687.00
2022-10-22T23:14:08.626Z,98685.53
2022-10-22T23:16:39.879Z,98693.38
2022-10-22T23:19:07.282Z,98683.13
2022-10-22T23:21:37.656Z,98686.03
2022-10-22T23:24:07.818Z,98686.03
2022-10-22T23:26:38.197Z,98687.50
2022-10-22T23:29:18.128Z,98687.22
2022-10-22T23:31:46.219Z,98690.66
2022-10-22T23:34:16.491Z,98700.63
2022-10-22T23:36:44.346Z,98695.97
2022-10-22T23:39:14.148Z,98687.47
2022-10-22T23:41:41.230Z,98691.34
2022-10-22T23:44:09.170Z,98676.00
2022-10-22T23:46:36.630Z,98684.78
2022-10-22T23:49:03.844Z,98676.50
2022-10-22T23:51:30.879Z,98673.59
2022-10-22T23:54:00.579Z,98676.78
2022-10-22T23:56:28.626Z,98673.59
2022-10-22T23:58:56.189Z,98671.88
